KBNA/BNA METAR and TAF weather

Enter ICAO airport designator
Station Type Date Time Source
KBNA METAR 2020/09/22 00:53 UTC NOAA

KBNA 220053Z 07004KT 10SM CLR 19/12 A3027 RMK AO2 SLP247 T01940117


Station Type Date Time Source
KBNA Decoded METAR 2020/09/22 00:53 UTC NOAA

NASHVILLE INTERNATIONAL AIRPORT, TN, United States (KBNA) 36-07N 086-41W 210M
Sep 21, 2020 - 08:53 PM EDT / 2020.09.22 0053 UTC
Wind: from the ENE (070 degrees) at 5 MPH (4 KT):0
Visibility: 10 mile(s):0
Sky conditions: clear
Temperature: 66.9 F (19.4 C)
Dew Point: 53.1 F (11.7 C)
Relative Humidity: 61%
Pressure (altimeter): 30.27 in. Hg (1025 hPa)
ob: KBNA 220053Z 07004KT 10SM CLR 19/12 A3027 RMK AO2 SLP247 T01940117
cycle: 1

Station Type Date Time Source
KBNA TAF 2020/09/21 18:36 UTC NOAA

TAF KBNA 211734Z 2118/2218 17007KT P6SM SKC
FM212300 10006KT P6SM SKC
FM221500 16005KT P6SM SCT250

Example: see airport list